Day Heights, Ohio
Current Conditions -  °F | °C
As of 9:53 PM on Thursday 20 Nov 2014 (Local Time) from KLUK Reporting Station
Clear Clear  
Wind Chill: 17°   Ceiling: Unl
Heat Index: 24°   Visibility: 10mi
Dew Point: 15°   Wind: 6mph
Humidity: 69%   Direction: 240°WSW
Pressure: 30.27"   Gusts: NA
Location:  39.1679°N, 84.2276°W
Report Text: KLUK 210253Z 24005KT 10SM CLR M04/M09 A3027 RMK AO2 SLP255 T10441094 53018
Loading
Personal Weather Stations






























Interactive Weather Map New forecast layout! Learn more

10-Day Weather Forecast

Advertisements
Track Severe Weather on mobile